Latest Weather Observations for Adelaide Airport

IDS60801

Issued at 5:21 am CST Wednesday 2 September 2026 (issued every 10 minutes, with the page automatically refreshed every 10 minutes)

About weather observations | Map of weather stations | Latest weather observations for SA | Other Formats
Station Details ID: 023154 Name: ADELAIDE AIRPORT Lat: -34.95 Lon: 138.53 Height: 3.31 m
Data from the previous 72 hours. | See also: Recent months at Adelaide Airport
Date/Time
CST
Temp
°C
App
Temp
°C
Dew
Point
°C
Rel
Hum
%
Delta-T
°C
Wind Press
QNH
hPa
Press
MSL
hPa
Rain since
9am
mm
Dir  Spd
km/h
Gust
km/h
Spd
kts
Gust
kts
02/05:00am 13.2 9.9 9.5 78 1.9 W 17 22 9 12 1016.8 1016.8 2.4
02/04:30am 13.1 11.0 11.0 87 1.1 WSW 13 17 7 9 1016.6 1016.6 2.4
02/04:00am 12.7 10.6 11.1 90 0.8 WSW 13 19 7 10 1016.6 1016.6 2.4
02/03:56am 12.7 11.1 11.6 93 0.6 WSW 11 17 6 9 1016.6 1016.6 2.4
02/03:30am 11.6 12.0 11.1 97 0.3 CALM 0 0 0 0 1016.5 1016.5 2.4
02/03:26am 11.5 11.8 11.0 97 0.3 CALM 0 0 0 0 1016.5 1016.5 2.4
02/03:00am 10.5 10.5 9.7 95 0.4 CALM 0 7 0 4 1016.4 1016.4 2.4
02/02:30am 11.7 10.5 10.4 92 0.7 SW 7 9 4 5 1016.7 1016.7 2.4
02/02:00am 12.3 10.9 11.0 92 0.7 SW 9 13 5 7 1016.9 1016.9 2.4
02/01:30am 12.6 11.4 11.5 93 0.6 SW 9 15 5 8 1017.0 1017.0 2.4
02/01:00am 12.6 11.4 11.5 93 0.6 SSW 9 13 5 7 1016.7 1016.7 2.4
02/12:30am 12.3 11.0 11.4 94 0.5 SW 9 11 5 6 1016.7 1016.7 2.4
02/12:00am 13.2 11.8 12.1 93 0.6 SSW 11 13 6 7 1016.6 1016.6 2.4
 
Date/Time
CST
Temp
°C
App
Temp
°C
Dew
Point
°C
Rel
Hum
%
Delta-T
°C
Wind Press
QNH
hPa
Press
MSL
hPa
Rain since
9am
mm
Dir  Spd
km/h
Gust
km/h
Spd
kts
Gust
kts
01/11:30pm 13.6 12.7 12.7 94 0.5 SW 9 13 5 7 1016.8 1016.8 2.4
01/11:01pm 14.2 13.1 13.2 94 0.6 SW 11 17 6 9 1016.9 1016.9 2.4
01/11:00pm 14.3 13.3 13.5 95 0.4 SW 11 17 6 9 1016.9 1016.9 2.4
01/10:30pm 14.5 14.0 13.7 95 0.4 W 9 13 5 7 1016.8 1016.8 2.4
01/10:05pm 13.7 13.4 12.8 94 0.5 WNW 6 7 3 4 1016.9 1016.9 2.4
01/10:00pm 13.7 13.4 12.6 93 0.6 WNW 6 7 3 4 1017.0 1017.0 2.4
01/09:30pm 14.2 13.4 12.8 91 0.8 WNW 9 13 5 7 1016.9 1016.9 2.4
01/09:00pm 14.9 13.9 13.3 90 0.9 NW 11 13 6 7 1016.8 1016.8 2.4
01/08:30pm 15.2 13.8 13.4 89 1.0 WNW 13 15 7 8 1016.6 1016.6 2.4
01/08:00pm 15.4 13.5 13.1 86 1.3 WNW 15 19 8 10 1016.5 1016.5 2.4
01/07:30pm 16.1 13.3 12.7 80 1.9 NW 19 30 10 16 1016.1 1016.1 2.4
01/07:00pm 15.0 13.7 12.5 85 1.4 N 11 17 6 9 1015.8 1015.8 2.4
01/06:30pm 15.3 14.2 13.0 86 1.3 NNE 11 15 6 8 1015.2 1015.2 2.4
01/06:00pm 14.9 13.7 12.9 88 1.1 NNE 11 17 6 9 1014.9 1014.9 2.4
01/05:30pm 14.9 13.9 13.3 90 0.9 NE 11 19 6 10 1014.8 1014.8 2.2
01/05:00pm 15.2 11.9 12.7 85 1.4 NE 22 28 12 15 1014.5 1014.5 2.2
01/04:30pm 15.1 12.3 13.1 88 1.1 NE 20 32 11 17 1014.5 1014.5 2.2
01/04:22pm 15.0 11.4 13.0 88 1.1 NE 24 32 13 17 1013.9 1013.9 2.2
01/04:00pm 15.2 14.1 13.2 88 1.1 NE 11 15 6 8 1015.9 1015.9 1.6
01/03:30pm 15.5 15.0 12.6 83 1.6 WSW 7 20 4 11 1016.0 1016.0 0.4
01/03:00pm 18.2 13.7 11.5 65 3.7 WNW 26 37 14 20 1016.2 1016.2 0.0
01/02:30pm 19.3 15.0 10.8 58 4.6 NW 24 33 13 18 1015.2 1015.2 0.0
01/02:00pm 19.6 13.4 10.0 54 5.1 NNW 33 44 18 24 1015.1 1015.1 0.0
01/01:30pm 20.4 13.8 8.7 47 6.1 NNW 33 48 18 26 1015.1 1015.1 0.0
01/01:00pm 20.3 14.1 9.2 49 5.9 N 32 41 17 22 1015.4 1015.4 0.0
01/12:30pm 20.0 14.1 9.0 49 5.8 N 30 44 16 24 1015.9 1015.9 0.0
01/12:00pm 20.8 15.4 9.4 48 6.1 N 28 39 15 21 1016.2 1016.2 0.0
01/11:30am 19.5 15.4 10.0 54 5.1 N 22 30 12 16 1017.0 1017.0 0.0
01/11:00am 18.3 13.6 9.1 55 4.8 NNE 24 32 13 17 1017.3 1017.3 0.0
01/10:30am 17.4 11.8 8.8 57 4.4 NNE 28 35 15 19 1017.3 1017.3 0.0
01/10:00am 17.7 11.9 8.0 53 4.9 NNE 28 39 15 21 1017.7 1017.7 0.0
01/09:30am 17.6 11.9 8.5 55 4.7 N 28 37 15 20 1017.9 1017.9 0.0
01/09:00am 17.4 11.9 7.7 53 4.9 N 26 37 14 20 1018.4 1018.4 0.0
01/08:30am 16.3 10.8 7.5 56 4.4 NNE 26 37 14 20 1018.5 1018.5 0.0
01/08:00am 15.9 10.4 7.7 58 4.1 NNE 26 32 14 17 1018.5 1018.5 0.0
01/07:30am 15.0 9.8 7.3 60 3.8 NNE 24 32 13 17 1018.9 1018.9 0.0
01/07:00am 14.4 9.9 7.0 61 3.6 NNE 20 28 11 15 1018.7 1018.7 0.0
01/06:30am 13.6 8.2 6.5 62 3.4 NNE 24 30 13 16 1018.8 1018.8 0.0
01/06:00am 13.9 8.9 6.5 61 3.5 NNE 22 28 12 15 1018.9 1018.9 0.0
01/05:30am 13.2 8.6 6.3 63 3.3 NNE 20 30 11 16 1019.0 1019.0 0.0
01/05:00am 12.8 8.4 6.4 65 3.0 NNE 19 24 10 13 1019.4 1019.4 0.0
01/04:30am 13.3 8.7 6.4 63 3.3 NNE 20 28 11 15 1019.4 1019.4 0.0
01/04:00am 14.0 8.7 6.6 61 3.6 NNE 24 35 13 19 1019.5 1019.5 0.0
01/03:30am 13.4 8.8 6.3 62 3.4 NNE 20 26 11 14 1020.0 1020.0 0.0
01/03:00am 13.6 9.0 6.5 62 3.4 NNE 20 30 11 16 1020.2 1020.2 0.0
01/02:30am 12.7 8.7 6.7 67 2.9 NNE 17 22 9 12 1020.6 1020.6 0.0
01/02:00am 12.1 8.1 6.6 69 2.6 NNE 17 20 9 11 1021.1 1021.1 0.0
01/01:30am 10.4 6.2 5.8 73 2.1 NE 17 19 9 10 1021.4 1021.4 0.0
01/01:00am 9.5 5.6 5.5 76 1.8 NE 15 17 8 9 1022.0 1022.0 0.0
01/12:30am 10.1 6.6 5.5 73 2.1 NNE 13 15 7 8 1022.3 1022.3 0.0
01/12:00am 10.5 6.8 6.3 75 1.9 NE 15 15 8 8 1022.6 1022.6 0.0
 
Date/Time
CST
Temp
°C
App
Temp
°C
Dew
Point
°C
Rel
Hum
%
Delta-T
°C
Wind Press
QNH
hPa
Press
MSL
hPa
Rain since
9am
mm
Dir  Spd
km/h
Gust
km/h
Spd
kts
Gust
kts
31/11:30pm 9.7 6.4 6.4 80 1.5 NE 13 13 7 7 1023.0 1023.0 0.0
31/11:00pm 9.8 6.5 6.3 79 1.6 NNE 13 15 7 8 1023.8 1023.8 0.0
31/10:30pm 12.2 9.8 6.9 70 2.5 N 9 11 5 6 1024.1 1024.1 0.0
31/10:00pm 11.0 7.7 6.4 73 2.2 NE 13 17 7 9 1024.1 1024.1 0.0
31/09:30pm 11.2 7.6 6.7 74 2.1 NNE 15 17 8 9 1024.2 1024.2 0.0
31/09:00pm 12.4 9.8 7.9 74 2.2 NE 11 13 6 7 1024.4 1024.4 0.0
31/08:30pm 11.0 8.7 8.9 87 1.0 NE 11 13 6 7 1024.5 1024.5 0.0
31/08:00pm 11.3 9.7 8.7 84 1.3 SE 7 11 4 6 1024.6 1024.6 0.0
31/07:30pm 12.2 11.1 9.8 85 1.2 SE 6 9 3 5 1024.9 1024.9 0.0
31/07:00pm 12.2 12.2 9.8 85 1.2 CALM 0 0 0 0 1025.1 1025.1 0.0
31/06:30pm 14.7 13.7 10.3 75 2.3 SE 6 7 3 4 1025.0 1025.0 0.0
31/06:00pm 15.1 14.2 10.7 75 2.3 S 6 7 3 4 1025.2 1025.2 0.0
31/05:30pm 16.4 15.1 11.1 71 2.8 WSW 9 9 5 5 1025.3 1025.3 0.0
31/05:00pm 17.5 16.5 10.9 65 3.5 WSW 7 11 4 6 1025.2 1025.2 0.0
31/04:30pm 17.7 16.8 11.3 66 3.5 SW 7 11 4 6 1025.3 1025.3 0.0
31/04:00pm 17.3 15.3 11.6 69 3.1 WSW 13 15 7 8 1025.7 1025.7 0.0
31/03:30pm 17.4 15.5 11.7 69 3.1 WSW 13 17 7 9 1026.0 1026.0 0.0
31/03:00pm 17.7 15.4 11.7 68 3.3 W 15 19 8 10 1026.0 1026.0 0.0
31/02:30pm 18.0 16.0 11.6 66 3.5 WSW 13 17 7 9 1026.3 1026.3 0.0
31/02:00pm 17.6 15.5 11.2 66 3.5 W 13 19 7 10 1026.8 1026.8 0.0
31/01:30pm 18.4 16.0 11.5 64 3.7 W 15 19 8 10 1027.5 1027.5 0.0
31/01:00pm 17.9 15.8 11.0 64 3.7 WSW 13 17 7 9 1028.2 1028.2 0.0
31/12:30pm 17.2 15.1 11.0 67 3.3 WSW 13 17 7 9 1028.9 1028.9 0.0
31/12:00pm 17.1 15.2 10.5 65 3.5 WSW 11 15 6 8 1029.6 1029.6 0.0
31/11:30am 16.7 15.1 10.1 65 3.5 SW 9 11 5 6 1030.0 1030.0 0.0
31/11:00am 16.0 14.0 10.3 69 3.0 WSW 11 13 6 7 1030.4 1030.4 0.0
31/10:30am 15.2 13.3 10.6 74 2.4 WSW 11 17 6 9 1030.6 1030.6 0.0
31/10:00am 15.9 15.0 9.3 65 3.4 NW 4 7 2 4 1030.6 1030.6 0.0
31/09:30am 14.3 13.9 9.9 75 2.3 W 2 6 1 3 1030.7 1030.7 0.0
31/09:00am 13.0 12.6 9.8 81 1.6 SW 2 6 1 3 1030.9 1030.9 0.0
31/08:30am 12.6 12.2 9.6 82 1.5 NE 2 7 1 4 1031.0 1031.0 0.0
31/08:00am 10.4 9.1 7.8 84 1.3 E 4 6 2 3 1030.9 1030.9 0.0
31/07:30am 7.2 6.4 6.6 96 0.3 CALM 0 6 0 3 1030.9 1030.9 0.0
31/07:00am 4.3 1.6 3.7 96 0.2 E 7 9 4 5 1030.7 1030.7 0.0
31/06:30am 3.4 1.9 2.8 96 0.2 CALM 0 0 0 0 1030.7 1030.7 0.0
31/06:00am 3.7 2.2 3.0 95 0.3 CALM 0 0 0 0 1030.7 1030.7 0.0
31/05:54am 3.9 2.4 3.2 95 0.3 CALM 0 2 0 1 1030.6 1030.6 0.0
31/05:30am 4.5 2.8 3.9 96 0.2 SW 2 7 1 4 1030.4 1030.4 0.0
31/05:00am 4.4 3.0 3.7 95 0.3 CALM 0 0 0 0 1030.3 1030.3 0.0
31/04:30am 4.9 3.2 3.9 93 0.4 E 2 7 1 4 1030.2 1030.2 0.0
31/04:00am 5.1 3.8 4.1 93 0.4 CALM 0 0 0 0 1030.4 1030.4 0.0
31/03:30am 5.9 3.7 5.3 96 0.3 E 6 6 3 3 1030.6 1030.6 0.0
31/03:00am 4.7 2.1 3.0 89 0.7 E 6 7 3 4 1030.9 1030.9 0.0
31/02:30am 6.7 5.7 5.5 92 0.5 CALM 0 6 0 3 1031.2 1031.2 0.0
31/02:00am 6.7 4.4 5.7 93 0.4 ESE 7 11 4 6 1031.4 1031.4 0.0
31/01:30am 6.3 3.6 5.6 95 0.3 SE 9 11 5 6 1031.8 1031.8 0.0
31/01:00am 5.5 2.7 5.1 97 0.2 SE 9 9 5 5 1032.0 1032.0 0.0
31/12:30am 7.0 6.2 6.4 96 0.3 CALM 0 0 0 0 1032.0 1032.0 0.0
31/12:00am 6.7 5.4 6.1 96 0.3 E 2 7 1 4 1032.1 1032.1 0.0
 
Date/Time
CST
Temp
°C
App
Temp
°C
Dew
Point
°C
Rel
Hum
%
Delta-T
°C
Wind Press
QNH
hPa
Press
MSL
hPa
Rain since
9am
mm
Dir  Spd
km/h
Gust
km/h
Spd
kts
Gust
kts
30/11:30pm 6.1 4.6 5.1 93 0.4 SSE 2 6 1 3 1032.3 1032.3 0.0
30/11:00pm 7.3 6.5 6.6 95 0.3 CALM 0 0 0 0 1032.6 1032.6 0.0
30/10:30pm 7.0 4.8 6.3 95 0.3 SSE 7 7 4 4 1032.6 1032.6 0.0
30/10:00pm 7.6 5.8 7.0 96 0.3 WSW 6 7 3 4 1032.3 1032.3 0.0
30/09:30pm 8.9 8.4 7.7 92 0.6 CALM 0 0 0 0 1032.3 1032.3 0.0
30/09:00pm 8.5 7.6 6.0 84 1.1 CALM 0 0 0 0 1032.1 1032.1 0.0
30/08:30pm 11.4 10.6 9.5 88 0.9 WSW 4 6 2 3 1031.9 1031.9 0.0
30/08:00pm 10.1 8.7 8.9 92 0.6 SE 6 9 3 5 1031.7 1031.7 0.0
30/07:30pm 9.8 8.0 7.9 88 0.9 SSE 7 9 4 5 1031.4 1031.4 0.0
30/07:00pm 10.7 9.3 9.0 89 0.8 SW 6 7 3 4 1031.2 1031.2 0.0
30/06:30pm 12.1 11.8 8.8 80 1.6 CALM 0 0 0 0 1031.2 1031.2 0.0
30/06:00pm 12.8 11.7 8.3 74 2.2 SW 4 9 2 5 1031.3 1031.3 0.0
30/05:30pm 14.2 11.3 8.2 67 3.0 SSW 13 20 7 11 1031.3 1031.3 0.0
30/05:00pm 14.7 11.6 8.9 68 2.9 SW 15 20 8 11 1031.4 1031.4 0.0
30/04:30pm 15.4 12.5 9.5 68 3.0 SW 15 19 8 10 1031.5 1031.5 0.0
30/04:00pm 15.4 11.7 7.9 61 3.8 SW 17 20 9 11 1031.7 1031.7 0.0
30/03:30pm 15.8 12.4 9.0 64 3.5 WSW 17 20 9 11 1032.0 1032.0 0.0
30/03:00pm 16.0 12.8 8.5 61 3.8 SW 15 19 8 10 1032.3 1032.3 0.0
30/02:30pm 15.4 12.1 7.9 61 3.7 SW 15 19 8 10 1032.6 1032.6 0.0
30/02:00pm 15.4 12.8 9.5 68 3.0 SW 13 17 7 9 1032.8 1032.8 0.0
30/01:30pm 14.7 11.7 9.1 69 2.8 SW 15 19 8 10 1033.1 1033.1 0.0
30/01:00pm 15.5 13.1 10.1 70 2.8 WSW 13 17 7 9 1033.6 1033.6 0.0
30/12:30pm 14.8 12.1 9.0 68 2.9 WSW 13 17 7 9 1034.0 1034.0 0.0
30/12:00pm 14.9 12.0 9.5 70 2.8 WSW 15 19 8 10 1034.3 1034.3 0.0
30/11:30am 14.9 12.3 9.3 69 2.8 WSW 13 17 7 9 1034.5 1034.5 0.0
30/11:00am 14.4 11.0 7.7 64 3.3 WSW 15 20 8 11 1034.6 1034.6 0.0
30/10:30am 14.5 12.3 7.8 64 3.3 W 9 17 5 9 1034.7 1034.7 0.0
30/10:00am 15.1 13.5 7.9 62 3.6 SE 6 7 3 4 1034.7 1034.7 0.0
30/09:30am 14.1 12.7 7.4 64 3.3 ESE 4 9 2 5 1035.0 1035.0 0.0
30/09:00am 13.1 11.3 8.0 71 2.5 NE 7 9 4 5 1035.1 1035.1 0.0
30/08:30am 11.2 9.8 7.1 76 1.9 ESE 4 7 2 4 1035.0 1035.0 0.0
30/08:00am 8.9 8.3 7.2 89 0.8 CALM 0 0 0 0 1034.8 1034.8 0.0
30/07:30am 6.1 3.8 5.7 97 0.2 ESE 7 7 4 4 1034.6 1034.6 0.0
30/07:00am 3.9 2.5 3.5 97 0.2 CALM 0 0 0 0 1034.2 1034.2 0.0
30/06:30am 4.2 2.1 3.8 97 0.2 ESE 4 6 2 3 1033.9 1033.9 0.0
30/06:00am 4.1 1.6 3.5 96 0.2 ESE 6 7 3 4 1033.7 1033.7 0.0
30/05:51am 4.2 2.8 3.6 96 0.2 CALM 0 0 0 0 1033.6 1033.6 0.0
30/05:30am 4.0 2.6 3.3 95 0.3 CALM 0 0 0 0 1033.6 1033.6 0.0

Other formats

Comma delimited format used in spreadsheet applications
http://www.bom.gov.au/fwo/IDS60801/IDS60801.94146.axf

JavaScript Object Notation format (JSON) in row-major order
http://www.bom.gov.au/fwo/IDS60801/IDS60801.94146.json

Data quality

Most of these data are generated automatically and are frequently updated. Quality checks on data are not normally performed. It is possible for incorrect values to appear. Refer to information at About Latest Weather Observations and please check the disclaimer before using these data.